Time;durP1;ratioP1;P1;durP2;ratioP2;P2;SDS_P1;SDS_P2;PMS_P1;PMS_P2;Temp;Humidity;BMP_temperature;BMP_pressure;BME280_temperature;BME280_humidity;BME280_pressure;Samples;Min_cycle;Max_cycle;Signal;HPM_P1;HPM_P2
2024/01/30 00:01:04;;;;;;;33.33;18.12;;;;;;;0.45;88.00;102075.62;1718908;83;25602;-41
2024/01/30 00:03:32;;;;;;;34.00;18.77;;;;;;;0.43;88.04;102071.83;1719032;83;25508;-41
2024/01/30 00:05:58;;;;;;;38.80;19.15;;;;;;;0.42;87.90;102070.69;1719008;83;25644;-40
2024/01/30 00:08:26;;;;;;;32.15;18.32;;;;;;;0.39;88.06;102065.23;1719015;83;26817;-41
2024/01/30 00:10:52;;;;;;;40.08;20.40;;;;;;;0.38;88.97;102056.95;1719246;83;25478;-41
2024/01/30 00:13:19;;;;;;;35.15;18.25;;;;;;;0.37;88.62;102060.63;1719054;83;25591;-41
2024/01/30 00:15:46;;;;;;;37.40;19.92;;;;;;;0.34;89.05;102055.20;1718969;83;26045;-42
2024/01/30 00:18:13;;;;;;;39.78;19.15;;;;;;;0.32;89.06;102051.08;1718966;83;25414;-42
2024/01/30 00:20:40;;;;;;;38.70;20.00;;;;;;;0.33;89.20;102054.88;1709373;83;26824;-41
2024/01/30 00:23:07;;;;;;;38.15;18.52;;;;;;;0.33;89.14;102043.42;1696570;84;25795;-40
2024/01/30 00:25:34;;;;;;;40.30;19.37;;;;;;;0.32;89.17;102045.75;1696673;84;25621;-40
2024/01/30 00:28:01;;;;;;;40.83;20.35;;;;;;;0.32;89.52;102045.75;1696663;84;26614;-39
2024/01/30 00:30:27;;;;;;;40.35;19.82;;;;;;;0.31;89.83;102043.61;1696689;84;25478;-40
2024/01/30 00:32:54;;;;;;;36.20;19.77;;;;;;;0.33;89.71;102040.75;1696686;84;28222;-39
2024/01/30 00:35:22;;;;;;;35.35;19.35;;;;;;;0.31;89.20;102038.29;1696633;84;25639;-42
2024/01/30 00:37:49;;;;;;;36.88;20.30;;;;;;;0.30;89.46;102029.98;1696651;84;25493;-39
2024/01/30 00:40:17;;;;;;;35.03;18.75;;;;;;;0.30;89.56;102037.97;1696630;84;25573;-41
2024/01/30 00:42:44;;;;;;;36.50;18.52;;;;;;;0.31;89.58;102043.61;1696694;84;25495;-39
2024/01/30 00:45:16;;;;;;;36.85;19.80;;;;;;;0.33;89.53;102040.23;1696639;84;28089;-39
2024/01/30 00:47:43;;;;;;;37.33;19.65;;;;;;;0.33;89.28;102030.92;1696571;84;25497;-40
2024/01/30 00:50:11;;;;;;;41.88;20.62;;;;;;;0.33;89.25;102033.58;1696651;84;25664;-41
2024/01/30 00:52:39;;;;;;;42.40;21.33;;;;;;;0.29;89.58;102023.52;1696629;84;26181;-40
2024/01/30 00:55:06;;;;;;;37.83;19.42;;;;;;;0.33;89.55;102022.12;1696611;84;25608;-41
2024/01/30 00:57:33;;;;;;;37.33;20.32;;;;;;;0.32;89.55;102017.31;1696584;84;27332;-42
2024/01/30 01:00:00;;;;;;;38.78;20.15;;;;;;;0.32;89.47;102024.46;1696583;84;25632;-40
2024/01/30 01:02:26;;;;;;;37.13;18.62;;;;;;;0.31;89.35;102026.83;1696841;84;25518;-40
2024/01/30 01:04:53;;;;;;;45.03;20.92;;;;;;;0.27;89.67;102029.03;1696768;84;25938;-40
2024/01/30 01:07:20;;;;;;;37.98;20.08;;;;;;;0.28;89.58;102026.70;1696800;84;25422;-41
2024/01/30 01:09:47;;;;;;;39.33;20.00;;;;;;;0.28;89.63;102022.70;1696797;84;28277;-41
2024/01/30 01:12:14;;;;;;;39.53;21.00;;;;;;;0.27;89.66;102018.91;1696609;84;25537;-42
2024/01/30 01:14:41;;;;;;;40.50;20.37;;;;;;;0.27;89.68;102026.89;1696782;84;25462;-40
2024/01/30 01:17:08;;;;;;;40.78;20.90;;;;;;;0.27;89.75;102025.56;1696669;84;25602;-41
2024/01/30 01:19:35;;;;;;;39.95;20.77;;;;;;;0.26;89.69;102027.41;1696782;84;25637;-40
2024/01/30 01:22:03;;;;;;;41.33;21.65;;;;;;;0.23;89.47;102023.00;1715384;83;28211;-40
2024/01/30 01:24:33;;;;;;;38.90;20.05;;;;;;;0.24;89.48;102017.97;1718890;83;25656;-41
2024/01/30 01:27:00;;;;;;;36.70;20.60;;;;;;;0.23;89.43;102023.00;1719013;83;25570;-41
2024/01/30 01:29:28;;;;;;;37.90;20.10;;;;;;;0.22;89.67;102025.34;1718967;83;25758;-41
2024/01/30 01:31:56;;;;;;;37.55;20.57;;;;;;;0.20;89.76;102023.39;1719031;83;25467;-41
2024/01/30 01:34:23;;;;;;;38.25;20.40;;;;;;;0.20;89.47;102032.70;1719015;83;28106;-41
2024/01/30 01:36:51;;;;;;;39.60;20.05;;;;;;;0.19;89.47;102025.23;1718916;83;25727;-41
2024/01/30 01:39:18;;;;;;;42.98;21.10;;;;;;;0.18;89.42;102020.92;1718954;83;25565;-40
2024/01/30 01:41:45;;;;;;;39.73;20.50;;;;;;;0.16;89.59;102017.64;1718923;83;26264;-41
2024/01/30 01:44:12;;;;;;;37.42;20.77;;;;;;;0.15;89.37;102018.64;1719120;83;25644;-39
2024/01/30 01:46:39;;;;;;;43.45;21.05;;;;;;;0.15;89.42;102026.63;1719009;83;27227;-39
2024/01/30 01:49:07;;;;;;;40.90;20.97;;;;;;;0.14;89.29;102031.66;1718928;83;25593;-39
2024/01/30 01:51:36;;;;;;;35.00;20.05;;;;;;;0.13;89.30;102028.67;1718966;83;25554;-40
2024/01/30 01:54:05;;;;;;;39.73;21.35;;;;;;;0.11;89.06;102022.21;1719069;83;25675;-41
2024/01/30 01:56:34;;;;;;;41.15;21.55;;;;;;;0.10;89.25;102021.08;1719122;83;25643;-40
2024/01/30 01:59:06;;;;;;;36.13;19.48;;;;;;;0.08;89.33;102013.28;1719062;83;27224;-40
2024/01/30 02:01:34;;;;;;;40.33;20.55;;;;;;;0.06;88.90;102019.84;1718903;83;25513;-40
2024/01/30 02:04:01;;;;;;;39.58;20.30;;;;;;;0.03;88.96;102017.56;1719038;83;25589;-40
2024/01/30 02:06:29;;;;;;;40.83;20.20;;;;;;;0.00;89.19;102018.80;1719024;83;25980;-41
2024/01/30 02:08:56;;;;;;;44.00;22.93;;;;;;;-0.02;89.35;102010.16;1719070;83;25572;-42
2024/01/30 02:11:23;;;;;;;46.08;22.32;;;;;;;-0.05;89.59;102011.39;1719065;83;27824;-41
2024/01/30 02:13:50;;;;;;;39.90;20.55;;;;;;;-0.08;89.63;102004.31;1718915;83;25555;-40
2024/01/30 02:16:17;;;;;;;40.08;20.05;;;;;;;-0.10;89.62;102001.84;1719051;83;25649;-39
2024/01/30 02:18:45;;;;;;;41.77;22.48;;;;;;;-0.14;89.42;102001.09;1718994;83;25982;-40
2024/01/30 02:21:16;;;;;;;42.73;20.85;;;;;;;-0.16;89.74;102006.61;1710914;83;25904;-39
2024/01/30 02:23:46;;;;;;;43.58;21.60;;;;;;;-0.17;89.68;102002.32;1696536;84;28299;-41
2024/01/30 02:26:13;;;;;;;42.50;22.85;;;;;;;-0.20;89.98;101992.87;1696552;84;25466;-40
2024/01/30 02:28:40;;;;;;;43.90;23.02;;;;;;;-0.21;89.90;101993.07;1696892;84;25587;-39
2024/01/30 02:31:07;;;;;;;41.10;22.37;;;;;;;-0.23;89.79;101995.92;1696813;84;26004;-39
2024/01/30 02:33:34;;;;;;;44.55;22.37;;;;;;;-0.24;90.01;101999.62;1696659;84;25599;-41
2024/01/30 02:36:03;;;;;;;44.75;23.00;;;;;;;-0.26;90.17;101998.16;1696615;84;27320;-40
2024/01/30 02:38:30;;;;;;;41.25;21.68;;;;;;;-0.28;90.43;101994.36;1696499;84;25632;-40
2024/01/30 02:40:57;;;;;;;48.65;23.27;;;;;;;-0.30;90.02;101996.91;1696625;84;25633;-41
2024/01/30 02:43:23;;;;;;;43.87;22.27;;;;;;;-0.30;90.28;102007.55;1696549;84;25657;-39
2024/01/30 02:45:50;;;;;;;37.58;22.10;;;;;;;-0.32;90.59;102004.23;1696623;84;25477;-39
2024/01/30 02:48:17;;;;;;;42.00;22.30;;;;;;;-0.33;90.76;102001.28;1696590;84;27978;-39
2024/01/30 02:50:44;;;;;;;47.90;22.60;;;;;;;-0.34;90.93;101992.98;1696499;84;25684;-40
2024/01/30 02:53:11;;;;;;;42.78;22.98;;;;;;;-0.33;90.96;101995.97;1696571;84;25556;-39
2024/01/30 02:55:38;;;;;;;42.50;21.42;;;;;;;-0.34;90.65;101999.14;1696477;84;25977;-40
2024/01/30 02:58:05;;;;;;;41.63;22.02;;;;;;;-0.35;90.81;101992.17;1696583;84;25571;-40
2024/01/30 03:00:31;;;;;;;40.33;20.77;;;;;;;-0.36;90.87;101988.38;1696681;84;27668;-40
2024/01/30 03:02:58;;;;;;;50.00;24.80;;;;;;;-0.38;91.10;101985.91;1696493;84;25633;-39
2024/01/30 03:05:25;;;;;;;42.70;21.70;;;;;;;-0.38;91.00;101989.89;1696567;84;25421;-40
2024/01/30 03:07:51;;;;;;;43.40;23.10;;;;;;;-0.40;91.19;101990.59;1696541;84;26345;-42
2024/01/30 03:10:19;;;;;;;43.08;22.52;;;;;;;-0.40;91.24;101988.75;1696583;84;25656;-40
2024/01/30 03:12:47;;;;;;;44.30;21.95;;;;;;;-0.41;91.04;101991.60;1696588;84;27840;-40
2024/01/30 03:15:13;;;;;;;44.18;21.87;;;;;;;-0.41;91.13;101991.60;1696477;84;25702;-41
2024/01/30 03:17:41;;;;;;;40.08;21.70;;;;;;;-0.43;91.11;101990.46;1696556;84;25551;-41
2024/01/30 03:20:11;;;;;;;42.00;21.82;;;;;;;-0.43;91.04;101991.80;1696516;84;26674;-40
2024/01/30 03:22:37;;;;;;;43.92;21.60;;;;;;;-0.44;91.15;101994.67;1696514;84;25588;-40
2024/01/30 03:25:07;;;;;;;44.50;23.32;;;;;;;-0.42;91.41;101992.64;1696492;84;27714;-40
2024/01/30 03:27:34;;;;;;;45.58;22.85;;;;;;;-0.43;91.07;101988.32;1696498;84;25630;-42
2024/01/30 03:30:01;;;;;;;45.55;23.20;;;;;;;-0.46;91.03;101976.25;1696546;84;25526;-40
2024/01/30 03:32:28;;;;;;;44.55;22.73;;;;;;;-0.46;91.06;101977.58;1696526;84;25636;-40
2024/01/30 03:34:55;;;;;;;47.08;22.48;;;;;;;-0.47;91.17;101983.09;1696582;84;25410;-40
2024/01/30 03:37:22;;;;;;;45.95;22.80;;;;;;;-0.47;91.28;101983.09;1696542;84;28493;-40
2024/01/30 03:39:49;;;;;;;46.95;22.93;;;;;;;-0.47;91.38;101984.42;1696568;84;26040;-40
2024/01/30 03:42:16;;;;;;;45.63;24.30;;;;;;;-0.47;91.28;101984.42;1696688;84;25597;-41
2024/01/30 03:44:44;;;;;;;43.85;21.62;;;;;;;-0.48;91.26;101982.25;1696766;84;25640;-40
2024/01/30 03:47:11;;;;;;;93.35;84.55;;;;;;;-0.48;91.32;101983.58;1696718;84;25431;-39
2024/01/30 03:49:38;;;;;;;91.40;82.47;;;;;;;-0.54;91.44;101976.39;1696753;84;27341;-41
2024/01/30 03:52:05;;;;;;;90.60;81.73;;;;;;;-0.54;91.63;101969.75;1696636;84;25330;-40
2024/01/30 03:54:32;;;;;;;90.70;81.37;;;;;;;-0.56;91.44;101970.45;1696723;84;25437;-40
2024/01/30 03:56:58;;;;;;;42.45;22.37;;;;;;;-0.61;91.96;101939.65;1696711;84;26629;-40
2024/01/30 03:59:25;;;;;;;46.60;22.75;;;;;;;-0.48;91.56;101982.77;1696849;84;25388;-40
2024/01/30 04:01:52;;;;;;;43.02;23.00;;;;;;;-0.48;91.54;101979.59;1696759;84;27418;-39
2024/01/30 04:04:19;;;;;;;46.92;22.95;;;;;;;-0.49;91.34;101975.83;1696768;84;25554;-39
2024/01/30 04:06:46;;;;;;;50.90;23.83;;;;;;;-0.50;91.58;101976.83;1696669;84;25628;-39
2024/01/30 04:09:14;;;;;;;47.30;23.45;;;;;;;-0.52;91.66;101975.69;1696635;84;25882;-41
2024/01/30 04:11:42;;;;;;;51.77;25.00;;;;;;;-0.54;91.67;101975.58;1696647;84;25419;-41
2024/01/30 04:14:09;;;;;;;47.65;24.23;;;;;;;-0.54;91.91;101975.06;1696508;84;27234;-40
2024/01/30 04:16:36;;;;;;;44.00;23.20;;;;;;;-0.54;92.05;101975.06;1696428;84;25569;-39
2024/01/30 04:19:03;;;;;;;48.28;23.12;;;;;;;-0.54;91.81;101972.92;1696507;84;25513;-41
2024/01/30 04:21:31;;;;;;;49.60;24.02;;;;;;;-0.57;91.92;101976.26;1700589;83;26327;-40
2024/01/30 04:23:58;;;;;;;47.25;23.65;;;;;;;-0.57;91.97;101978.11;1718890;83;25490;-40
2024/01/30 04:26:26;;;;;;;44.33;23.10;;;;;;;-0.59;91.81;101983.61;1718844;83;28462;-40
2024/01/30 04:28:54;;;;;;;42.25;21.60;;;;;;;-0.60;91.70;101983.80;1718775;83;25951;-40
2024/01/30 04:31:21;;;;;;;45.05;23.52;;;;;;;-0.62;91.72;101976.02;1718855;83;25472;-40
2024/01/30 04:33:48;;;;;;;50.25;24.65;;;;;;;-0.64;91.64;101982.04;1718804;83;25622;-40
2024/01/30 04:36:15;;;;;;;42.45;22.65;;;;;;;-0.64;91.77;101986.03;1719003;83;25487;-40
2024/01/30 04:38:42;;;;;;;39.90;22.62;;;;;;;-0.64;91.84;101971.92;1718957;83;27355;-40
2024/01/30 04:41:09;;;;;;;44.27;22.98;;;;;;;-0.67;92.00;101973.11;1718945;83;25727;-41
2024/01/30 04:43:35;;;;;;;48.33;23.98;;;;;;;-0.66;92.04;101974.77;1719043;83;25475;-40
2024/01/30 04:46:02;;;;;;;47.67;24.47;;;;;;;-0.66;92.01;101973.96;1719219;83;25556;-40
2024/01/30 04:48:29;;;;;;;43.02;22.67;;;;;;;-0.67;92.20;101974.96;1719390;83;25569;-41
2024/01/30 04:50:57;;;;;;;44.20;23.12;;;;;;;-0.68;91.96;101972.82;1718991;83;27724;-41
2024/01/30 04:53:24;;;;;;;49.58;23.90;;;;;;;-0.68;92.01;101976.81;1718912;83;25767;-41
2024/01/30 04:55:51;;;;;;;47.55;23.85;;;;;;;-0.69;92.01;101975.15;1718999;83;25556;-40
2024/01/30 04:58:18;;;;;;;51.70;25.05;;;;;;;-0.69;92.47;101979.66;1718956;83;26192;-40
2024/01/30 05:00:46;;;;;;;43.00;22.87;;;;;;;-0.70;92.52;101974.02;1719022;83;25640;-41
2024/01/30 05:03:13;;;;;;;48.17;24.72;;;;;;;-0.71;92.52;101979.03;1719118;83;27309;-42
2024/01/30 05:05:41;;;;;;;49.03;25.25;;;;;;;-0.72;92.03;101972.06;1718907;83;25384;-40
2024/01/30 05:08:08;;;;;;;44.00;22.37;;;;;;;-0.74;92.19;101972.77;1719002;83;25467;-40
2024/01/30 05:10:34;;;;;;;49.90;23.45;;;;;;;-0.74;92.19;101975.42;1718969;83;26222;-40
2024/01/30 05:13:01;;;;;;;47.75;22.87;;;;;;;-0.76;92.23;101970.30;1719003;83;25395;-41
2024/01/30 05:15:28;;;;;;;45.05;23.80;;;;;;;-0.78;92.28;101967.83;1718983;83;27333;-41
2024/01/30 05:17:56;;;;;;;45.48;23.80;;;;;;;-0.78;92.18;101967.02;1718902;83;25682;-41
2024/01/30 05:20:22;;;;;;;45.75;23.07;;;;;;;-0.81;91.99;101966.88;1718956;83;25695;-40
2024/01/30 05:22:49;;;;;;;46.15;24.20;;;;;;;-0.82;91.85;101958.61;1718849;83;26597;-40
2024/01/30 05:25:15;;;;;;;52.05;25.77;;;;;;;-0.83;91.96;101970.23;1719003;83;25512;-41
2024/01/30 05:27:43;;;;;;;47.48;23.73;;;;;;;-0.85;92.06;101964.78;1718987;83;27377;-40
2024/01/30 05:30:12;;;;;;;42.43;22.82;;;;;;;-0.87;91.95;101956.20;1718917;83;25987;-39
2024/01/30 05:32:39;;;;;;;46.73;24.07;;;;;;;-0.91;92.25;101953.10;1719021;83;25415;-40
2024/01/30 05:35:08;;;;;;;43.87;24.55;;;;;;;-0.89;92.11;101955.05;1718936;83;26468;-40
2024/01/30 05:37:34;;;;;;;46.95;23.98;;;;;;;-0.90;92.20;101962.73;1719000;83;25632;-40
2024/01/30 05:40:01;;;;;;;43.05;23.20;;;;;;;-0.90;92.60;101954.76;1718956;83;27978;-40
2024/01/30 05:42:28;;;;;;;50.58;24.77;;;;;;;-0.91;92.17;101962.40;1718823;83;25577;-42
2024/01/30 05:44:56;;;;;;;46.30;23.85;;;;;;;-0.90;92.37;101964.54;1719062;83;25451;-40
2024/01/30 05:47:22;;;;;;;49.60;25.95;;;;;;;-0.92;92.50;101962.07;1718913;83;26096;-40
2024/01/30 05:49:49;;;;;;;52.55;24.77;;;;;;;-0.93;92.49;101971.59;1718976;83;25572;-41
2024/01/30 05:52:18;;;;;;;49.65;24.52;;;;;;;-0.95;92.40;101974.44;1718969;83;28165;-41
2024/01/30 05:54:45;;;;;;;48.23;24.60;;;;;;;-0.95;92.45;101973.11;1718877;83;25534;-41
2024/01/30 05:57:11;;;;;;;52.23;26.07;;;;;;;-0.93;92.82;101979.56;1718933;83;25641;-40
2024/01/30 05:59:38;;;;;;;49.03;24.32;;;;;;;-0.92;92.71;101976.69;1718902;83;25972;-40
2024/01/30 06:02:04;;;;;;;48.05;24.82;;;;;;;-0.93;92.46;101975.06;1718980;83;25402;-40
2024/01/30 06:04:32;;;;;;;46.90;25.08;;;;;;;-0.94;92.31;101980.05;1718961;83;27304;-40
2024/01/30 06:07:01;;;;;;;50.95;24.40;;;;;;;-0.95;92.40;101979.23;1718864;83;25654;-40
2024/01/30 06:09:28;;;;;;;48.50;25.85;;;;;;;-0.97;92.52;101967.14;1718749;83;25597;-41
2024/01/30 06:11:56;;;;;;;43.55;23.42;;;;;;;-0.95;92.56;101975.77;1718898;83;25620;-40
2024/01/30 06:14:23;;;;;;;52.60;24.72;;;;;;;-0.97;92.40;101975.95;1718987;83;25655;-40
2024/01/30 06:16:50;;;;;;;43.38;23.70;;;;;;;-0.96;92.59;101975.44;1718901;83;28179;-40
2024/01/30 06:19:17;;;;;;;54.93;25.80;;;;;;;-0.96;92.78;101973.59;1718659;83;25636;-41
2024/01/30 06:21:45;;;;;;;50.80;24.12;;;;;;;-0.94;92.83;101976.06;1718791;83;25582;-40
2024/01/30 06:24:13;;;;;;;48.80;24.43;;;;;;;-0.97;92.70;101967.98;1696593;84;26022;-40
2024/01/30 06:26:41;;;;;;;49.42;25.82;;;;;;;-0.94;92.57;101966.77;1696675;84;25583;-41
2024/01/30 06:29:09;;;;;;;53.45;25.55;;;;;;;-0.93;92.65;101964.43;1696782;84;27348;-42
2024/01/30 06:31:42;;;;;;;64.55;36.13;;;;;;;-0.89;92.79;101967.52;1696580;84;25569;-41
2024/01/30 06:34:11;;;;;;;54.73;25.80;;;;;;;-0.88;92.87;101954.57;1696652;84;25481;-40
2024/01/30 06:36:40;;;;;;;50.00;24.95;;;;;;;-0.84;92.76;101957.95;1696691;84;25648;-41
2024/01/30 06:39:08;;;;;;;48.50;24.43;;;;;;;-0.82;92.66;101962.59;1696614;84;25403;-40
2024/01/30 06:41:35;;;;;;;52.55;25.25;;;;;;;-0.80;92.64;101963.22;1696913;84;28325;-40
2024/01/30 06:44:08;;;;;;;49.93;23.57;;;;;;;-0.79;92.65;101966.69;1696557;84;25533;-40
2024/01/30 06:46:37;;;;;;;48.83;25.20;;;;;;;-0.76;92.68;101971.11;1696617;84;25571;-40
2024/01/30 06:49:03;;;;;;;52.03;24.52;;;;;;;-0.71;92.66;101968.41;1696689;84;26035;-41
2024/01/30 06:51:30;;;;;;;53.90;26.15;;;;;;;-0.68;92.58;101972.82;1696595;84;25587;-40
2024/01/30 06:53:56;;;;;;;48.25;24.12;;;;;;;-0.64;92.45;101981.23;1696582;84;27326;-40
2024/01/30 06:56:25;;;;;;;47.38;24.72;;;;;;;-0.61;92.37;101974.20;1696524;84;25479;-40
2024/01/30 06:58:52;;;;;;;52.23;24.90;;;;;;;-0.59;92.29;101974.83;1696770;84;25461;-41
2024/01/30 07:01:20;;;;;;;41.83;22.52;;;;;;;-0.53;92.38;101980.67;1696589;84;26605;-41
2024/01/30 07:03:48;;;;;;;48.63;23.47;;;;;;;-0.47;92.36;101981.77;1696914;84;25221;-41
2024/01/30 07:06:17;;;;;;;54.18;25.17;;;;;;;-0.44;92.27;101978.72;1696979;84;27716;-41
2024/01/30 07:08:44;;;;;;;48.95;23.98;;;;;;;-0.39;92.10;101974.97;1696642;84;25755;-41
2024/01/30 07:11:12;;;;;;;48.73;24.52;;;;;;;-0.34;92.11;101977.02;1696581;84;25458;-40
2024/01/30 07:13:39;;;;;;;50.73;24.35;;;;;;;-0.31;91.75;101989.94;1696546;84;26011;-41
2024/01/30 07:16:07;;;;;;;50.38;24.63;;;;;;;-0.27;91.57;101984.56;1696616;84;25474;-40
2024/01/30 07:18:35;;;;;;;49.70;25.23;;;;;;;-0.26;91.50;101987.00;1696563;84;27759;-40
2024/01/30 07:21:04;;;;;;;44.40;23.23;;;;;;;-0.21;91.41;101991.22;1696678;84;25659;-41
2024/01/30 07:23:34;;;;;;;47.95;24.27;;;;;;;-0.15;91.32;101992.79;1710215;83;30914;-41
2024/01/30 07:26:03;;;;;;;49.90;24.75;;;;;;;-0.09;91.15;101992.02;1718883;83;25604;-40
2024/01/30 07:28:30;;;;;;;48.78;24.47;;;;;;;-0.04;91.06;101992.25;1719044;83;25677;-42
2024/01/30 07:30:58;;;;;;;78.12;43.87;;;;;;;0.01;90.96;101981.84;1718912;83;28190;-42
2024/01/30 07:33:26;;;;;;;68.78;36.35;;;;;;;0.09;91.02;101988.84;1718879;83;26000;-40
2024/01/30 07:35:55;;;;;;;47.10;25.05;;;;;;;0.21;90.83;101991.25;1718953;83;25603;-41
2024/01/30 07:38:22;;;;;;;47.65;24.35;;;;;;;0.33;91.15;101988.33;1719024;83;25652;-40
2024/01/30 07:40:48;;;;;;;45.63;23.75;;;;;;;0.48;90.45;101988.19;1718909;83;25680;-41
2024/01/30 07:43:15;;;;;;;50.55;25.82;;;;;;;0.64;90.71;101985.66;1694469;83;28360;-41
2024/01/30 07:45:41;;;;;;;46.05;24.87;;;;;;;0.76;90.36;101978.42;1718848;83;25410;-42
2024/01/30 07:48:10;;;;;;;46.13;23.50;;;;;;;0.85;89.87;101979.37;1718957;83;25567;-42
2024/01/30 07:50:37;;;;;;;45.25;22.90;;;;;;;1.02;89.98;101981.14;1718940;83;33825;-39
2024/01/30 07:53:06;;;;;;;45.63;23.47;;;;;;;1.21;89.30;101978.66;1718935;83;25172;-41
2024/01/30 07:55:34;;;;;;;;;;;;;;;1.52;90.38;101975.38;1721483;83;28335;-40
2024/01/30 07:58:04;;;;;;;44.33;23.67;;;;;;;1.84;89.92;101978.20;1718886;83;25644;-40
2024/01/30 08:00:32;;;;;;;47.55;24.02;;;;;;;2.16;88.85;101980.47;1718860;83;25609;-41
2024/01/30 08:02:59;;;;;;;43.23;23.30;;;;;;;2.48;89.10;101973.84;1718786;83;25989;-42
2024/01/30 08:05:27;;;;;;;48.28;22.82;;;;;;;2.77;86.36;101975.10;1718805;83;25508;-40
2024/01/30 08:07:54;;;;;;;44.18;23.70;;;;;;;3.01;85.13;101974.02;1718886;83;28352;-41
2024/01/30 08:10:22;;;;;;;41.45;21.95;;;;;;;3.26;85.11;101974.56;1718798;83;25470;-40
2024/01/30 08:12:49;;;;;;;42.30;22.90;;;;;;;3.55;84.18;101968.52;1718837;83;25604;-42
2024/01/30 08:15:19;;;;;;;40.38;21.02;;;;;;;3.68;82.22;101971.59;1718791;83;26215;-40
2024/01/30 08:17:45;;;;;;;39.78;21.80;;;;;;;3.88;81.81;101967.88;1718935;83;25624;-42
2024/01/30 08:20:13;;;;;;;41.33;22.48;;;;;;;4.14;82.30;101975.31;1718875;83;27667;-41
2024/01/30 08:22:42;;;;;;;39.60;21.95;;;;;;;4.44;81.27;101978.87;1718683;83;25496;-42
2024/01/30 08:25:11;;;;;;;37.03;21.93;;;;;;;4.79;81.06;101975.48;1718913;83;25394;-42
2024/01/30 08:27:38;;;;;;;48.40;25.45;;;;;;;4.93;79.96;101964.03;1720237;80;25668;-41
2024/01/30 08:30:15;;;;;;;44.35;25.62;;;;;;;5.11;78.86;101962.30;1718884;83;25640;-41
2024/01/30 08:32:41;;;;;;;38.42;22.35;;;;;;;5.31;77.83;101964.66;1718904;83;28261;-42
2024/01/30 08:35:13;;;;;;;39.55;21.62;;;;;;;5.45;76.66;101964.75;1718693;83;26161;-42
2024/01/30 08:37:41;;;;;;;36.77;21.60;;;;;;;5.55;76.03;101967.66;1718803;83;25549;-41
2024/01/30 08:40:14;;;;;;;36.25;20.57;;;;;;;5.71;74.18;101961.28;1718814;83;25957;-42
2024/01/30 08:42:40;;;;;;;41.28;21.70;;;;;;;5.93;74.07;101960.14;1718818;83;25593;-42
2024/01/30 08:45:12;;;;;;;37.73;20.82;;;;;;;6.15;75.41;101964.39;1718732;83;27862;-41
2024/01/30 08:47:41;;;;;;;43.63;21.68;;;;;;;6.35;73.26;101960.75;1718709;83;25481;-40
2024/01/30 08:50:10;;;;;;;39.60;21.95;;;;;;;6.53;73.03;101957.58;1718826;83;25471;-42
2024/01/30 08:52:39;;;;;;;38.65;21.68;;;;;;;6.61;72.84;101954.50;1718789;83;26571;-42
2024/01/30 08:55:11;;;;;;;35.75;20.68;;;;;;;6.77;69.77;101962.84;1718849;83;25414;-41
2024/01/30 08:57:38;;;;;;;40.23;21.48;;;;;;;7.03;72.77;101960.04;1718907;83;28638;-40
2024/01/30 09:00:13;;;;;;;36.08;20.92;;;;;;;7.46;71.91;101953.99;1718660;83;25954;-40
2024/01/30 09:02:39;;;;;;;38.42;22.15;;;;;;;7.75;70.10;101965.98;1718836;83;25447;-41
2024/01/30 09:05:12;;;;;;;40.88;22.22;;;;;;;7.70;67.43;101954.33;1718775;83;25982;-42
2024/01/30 09:07:38;;;;;;;35.48;20.90;;;;;;;7.82;67.06;101963.91;1718793;83;25627;-42
2024/01/30 09:10:10;;;;;;;40.03;21.42;;;;;;;7.94;66.83;101965.14;1718688;83;27790;-42
2024/01/30 09:12:38;;;;;;;43.42;21.90;;;;;;;8.06;67.20;101964.22;1718723;83;25994;-41
2024/01/30 09:15:11;;;;;;;37.95;21.42;;;;;;;8.26;63.83;101962.27;1718810;83;25576;-41
2024/01/30 09:17:38;;;;;;;37.00;21.07;;;;;;;8.32;65.66;101967.47;1718798;83;25627;-41
2024/01/30 09:20:12;;;;;;;36.33;21.62;;;;;;;8.52;65.47;101970.95;1718322;83;25522;-40
2024/01/30 09:22:38;;;;;;;36.00;21.73;;;;;;;8.60;64.11;101962.96;1718156;83;27348;-41
2024/01/30 09:25:12;;;;;;;35.08;20.43;;;;;;;8.76;63.96;101964.72;1697262;83;25650;-42
2024/01/30 09:27:39;;;;;;;36.08;21.20;;;;;;;8.82;63.31;101961.55;1696695;84;25588;-42
2024/01/30 09:30:16;;;;;;;39.10;22.25;;;;;;;8.84;61.77;101963.45;1696553;84;25981;-41
2024/01/30 09:32:43;;;;;;;40.55;21.37;;;;;;;8.92;61.71;101962.16;1715389;79;27462;-42
2024/01/30 09:35:10;;;;;;;39.80;21.93;;;;;;;8.93;59.43;101953.00;1704005;84;28019;-42
2024/01/30 09:37:37;;;;;;;35.48;20.55;;;;;;;8.93;59.58;101953.00;1703930;84;26049;-41
2024/01/30 09:40:06;;;;;;;37.67;21.60;;;;;;;8.99;59.88;101956.03;1704030;84;25470;-43
2024/01/30 09:42:36;;;;;;;36.80;21.85;;;;;;;9.20;61.75;101952.94;1704132;84;25658;-44
2024/01/30 09:45:05;;;;;;;35.15;20.57;;;;;;;9.58;59.10;101948.86;1704003;84;25585;-45
2024/01/30 09:47:39;;;;;;;33.18;20.25;;;;;;;9.56;58.78;101948.31;1703964;83;27250;-44
2024/01/30 09:50:08;;;;;;;37.35;21.23;;;;;;;9.56;59.68;101941.02;1702318;84;25478;-42
2024/01/30 09:52:35;;;;;;;38.83;21.07;;;;;;;9.81;59.15;101938.19;1703986;84;25632;-42
2024/01/30 09:55:02;;;;;;;37.08;20.43;;;;;;;10.39;61.63;101940.84;1703882;83;25630;-43
2024/01/30 09:57:29;;;;;;;36.28;20.75;;;;;;;11.15;59.55;101939.24;1703962;84;25465;-42
2024/01/30 09:59:56;;;;;;;31.37;20.20;;;;;;;11.28;55.30;101931.11;1703877;84;27978;-43
2024/01/30 10:02:23;;;;;;;33.98;20.12;;;;;;;11.42;56.71;101930.80;1703841;84;25987;-43
2024/01/30 10:04:52;;;;;;;35.92;21.00;;;;;;;11.73;56.58;101922.05;1703926;84;25583;-43
2024/01/30 10:07:19;;;;;;;35.78;20.92;;;;;;;11.77;54.00;101930.45;1704021;83;25622;-41
2024/01/30 10:09:47;;;;;;;34.90;21.55;;;;;;;11.88;53.14;101928.49;1703950;84;25430;-43
2024/01/30 10:12:13;;;;;;;35.60;20.52;;;;;;;11.75;54.14;101920.42;1704019;83;27952;-41
2024/01/30 10:14:40;;;;;;;35.55;21.10;;;;;;;11.94;53.97;101922.80;1703894;83;25485;-41
2024/01/30 10:17:11;;;;;;;34.67;20.37;;;;;;;12.09;53.07;101925.19;1703894;84;25466;-42
2024/01/30 10:19:41;;;;;;;33.02;20.15;;;;;;;12.08;52.46;101920.84;1703810;84;26187;-43
2024/01/30 10:22:07;;;;;;;;;;;;;;;11.94;51.52;101917.38;1706246;84;25477;-44
2024/01/30 10:24:35;;;;;;;36.40;20.23;;;;;;;11.99;51.70;101918.47;1703952;83;28129;-45
2024/01/30 10:27:01;;;;;;;33.63;20.08;;;;;;;12.30;52.85;101918.54;1703827;84;25981;-42
2024/01/30 10:29:29;;;;;;;34.08;19.65;;;;;;;12.91;52.31;101911.60;1703888;84;25563;-42
2024/01/30 10:32:04;;;;;;;32.90;18.65;;;;;;;13.60;52.29;101910.38;1703871;83;26370;-42
2024/01/30 10:34:32;;;;;;;36.68;20.32;;;;;;;14.20;49.95;101898.98;1695426;84;25492;-41
2024/01/30 10:37:17;;;;;;;33.63;20.60;;;;;;;14.35;49.80;101891.69;1694368;84;27469;-41
2024/01/30 10:39:47;;;;;;;31.02;19.37;;;;;;;14.45;49.97;101899.69;1693170;84;26030;-45
2024/01/30 10:42:21;;;;;;;29.85;18.48;;;;;;;14.68;48.62;101891.20;1693356;84;25702;-41
2024/01/30 10:44:58;;;;;;;31.85;19.73;;;;;;;14.84;49.39;101895.03;1693935;84;26614;-43
2024/01/30 10:47:30;;;;;;;31.50;18.12;;;;;;;14.86;47.77;101883.27;1693971;84;25717;-41
2024/01/30 10:49:57;;;;;;;32.88;18.70;;;;;;;14.81;48.14;101888.81;1693908;84;27703;-42
2024/01/30 10:52:29;;;;;;;29.98;18.65;;;;;;;14.71;47.53;101883.80;1693891;84;25722;-42
2024/01/30 10:54:55;;;;;;;;;;;;;;;14.80;47.25;101879.84;1669888;84;25606;-42
2024/01/30 10:57:25;;;;;;;29.37;18.67;;;;;;;15.45;48.68;101878.10;1694716;84;25638;-42
2024/01/30 10:59:58;;;;;;;27.13;17.75;;;;;;;16.42;48.48;101878.72;1694433;84;25269;-41
2024/01/30 11:02:26;;;;;;;27.10;17.12;;;;;;;17.17;47.32;101876.86;1694415;84;28369;-42
2024/01/30 11:04:59;;;;;;;27.58;16.90;;;;;;;18.03;46.25;101873.30;1694374;84;25644;-41
2024/01/30 11:07:30;;;;;;;24.82;17.02;;;;;;;18.20;43.88;101854.70;1694500;84;25636;-41
2024/01/30 11:10:02;;;;;;;28.15;16.85;;;;;;;18.98;44.98;101860.05;1694372;84;25676;-42
2024/01/30 11:12:34;;;;;;;26.77;16.75;;;;;;;19.54;43.44;101861.90;1693779;84;25686;-48
2024/01/30 11:15:10;;;;;;;24.15;16.02;;;;;;;19.63;40.85;101854.44;1694432;84;27347;-41
2024/01/30 11:17:51;;;;;;;25.90;16.82;;;;;;;19.42;40.67;101854.37;1694332;84;25660;-41